sensor_id;sensor_type;location;lat;lon;timestamp;P1;durP1;ratioP1;P2;durP2;ratioP2
27269;SDS011;14769;56.934;24.176;2023-03-13T00:00:20;3.65;;;1.63;;
27269;SDS011;14769;56.934;24.176;2023-03-13T00:01:24;5.45;;;2.13;;
27269;SDS011;14769;56.934;24.176;2023-03-13T00:02:28;7.28;;;2.08;;
27269;SDS011;14769;56.934;24.176;2023-03-13T00:03:30;6.95;;;2.20;;
27269;SDS011;14769;56.934;24.176;2023-03-13T00:04:32;4.85;;;2.30;;
27269;SDS011;14769;56.934;24.176;2023-03-13T00:05:35;4.03;;;1.70;;
27269;SDS011;14769;56.934;24.176;2023-03-13T00:06:37;6.00;;;1.50;;
27269;SDS011;14769;56.934;24.176;2023-03-13T00:07:40;4.47;;;1.45;;
27269;SDS011;14769;56.934;24.176;2023-03-13T00:08:42;6.63;;;1.75;;
27269;SDS011;14769;56.934;24.176;2023-03-13T00:09:45;4.45;;;1.65;;
27269;SDS011;14769;56.934;24.176;2023-03-13T00:10:47;5.75;;;1.50;;
27269;SDS011;14769;56.934;24.176;2023-03-13T00:11:51;6.22;;;1.90;;
27269;SDS011;14769;56.934;24.176;2023-03-13T00:12:53;5.07;;;1.90;;
27269;SDS011;14769;56.934;24.176;2023-03-13T00:13:55;5.38;;;1.67;;
27269;SDS011;14769;56.934;24.176;2023-03-13T00:14:58;7.55;;;1.77;;
27269;SDS011;14769;56.934;24.176;2023-03-13T00:16:01;5.15;;;1.70;;
27269;SDS011;14769;56.934;24.176;2023-03-13T00:17:05;3.80;;;1.75;;
27269;SDS011;14769;56.934;24.176;2023-03-13T00:18:07;4.55;;;1.88;;
27269;SDS011;14769;56.934;24.176;2023-03-13T00:30:34;5.80;;;1.65;;
27269;SDS011;14769;56.934;24.176;2023-03-13T02:52:47;5.68;;;1.50;;
27269;SDS011;14769;56.934;24.176;2023-03-13T02:53:53;7.50;;;1.83;;
27269;SDS011;14769;56.934;24.176;2023-03-13T02:55:01;4.47;;;1.77;;
27269;SDS011;14769;56.934;24.176;2023-03-13T02:56:07;4.43;;;1.70;;
27269;SDS011;14769;56.934;24.176;2023-03-13T02:57:09;3.80;;;1.55;;
27269;SDS011;14769;56.934;24.176;2023-03-13T02:58:11;4.05;;;1.73;;
27269;SDS011;14769;56.934;24.176;2023-03-13T02:59:13;4.32;;;1.85;;
27269;SDS011;14769;56.934;24.176;2023-03-13T03:00:16;5.78;;;1.60;;
27269;SDS011;14769;56.934;24.176;2023-03-13T03:01:19;3.22;;;1.77;;
27269;SDS011;14769;56.934;24.176;2023-03-13T03:02:21;5.20;;;1.70;;
27269;SDS011;14769;56.934;24.176;2023-03-13T03:03:23;6.05;;;2.20;;
27269;SDS011;14769;56.934;24.176;2023-03-13T03:04:25;3.83;;;1.83;;
27269;SDS011;14769;56.934;24.176;2023-03-13T03:05:29;6.00;;;1.77;;
27269;SDS011;14769;56.934;24.176;2023-03-13T03:06:31;4.10;;;1.75;;
27269;SDS011;14769;56.934;24.176;2023-03-13T03:07:33;3.92;;;1.70;;
27269;SDS011;14769;56.934;24.176;2023-03-13T03:08:35;4.10;;;1.83;;
27269;SDS011;14769;56.934;24.176;2023-03-13T03:09:41;5.80;;;2.00;;
27269;SDS011;14769;56.934;24.176;2023-03-13T03:10:43;6.55;;;1.77;;
27269;SDS011;14769;56.934;24.176;2023-03-13T03:11:45;5.07;;;1.98;;
27269;SDS011;14769;56.934;24.176;2023-03-13T03:12:48;4.13;;;1.67;;
27269;SDS011;14769;56.934;24.176;2023-03-13T03:13:50;3.72;;;1.75;;
27269;SDS011;14769;56.934;24.176;2023-03-13T03:14:52;5.15;;;2.00;;
27269;SDS011;14769;56.934;24.176;2023-03-13T03:15:54;4.18;;;2.00;;
27269;SDS011;14769;56.934;24.176;2023-03-13T03:16:56;6.68;;;2.20;;
27269;SDS011;14769;56.934;24.176;2023-03-13T03:17:58;5.00;;;2.03;;
27269;SDS011;14769;56.934;24.176;2023-03-13T03:19:00;7.57;;;2.38;;
27269;SDS011;14769;56.934;24.176;2023-03-13T03:20:04;4.55;;;2.13;;
27269;SDS011;14769;56.934;24.176;2023-03-13T03:21:12;6.13;;;2.38;;
27269;SDS011;14769;56.934;24.176;2023-03-13T06:22:58;11.55;;;3.38;;
27269;SDS011;14769;56.934;24.176;2023-03-13T06:24:00;12.15;;;3.40;;
27269;SDS011;14769;56.934;24.176;2023-03-13T06:30:12;9.20;;;3.85;;
27269;SDS011;14769;56.934;24.176;2023-03-13T13:13:28;12.73;;;5.53;;
27269;SDS011;14769;56.934;24.176;2023-03-13T13:16:10;10.90;;;5.32;;
27269;SDS011;14769;56.934;24.176;2023-03-13T13:18:29;10.38;;;5.78;;
27269;SDS011;14769;56.934;24.176;2023-03-13T13:20:45;17.20;;;6.13;;
27269;SDS011;14769;56.934;24.176;2023-03-13T13:23:30;11.73;;;5.03;;
27269;SDS011;14769;56.934;24.176;2023-03-13T13:24:49;11.15;;;5.65;;
27269;SDS011;14769;56.934;24.176;2023-03-13T13:25:55;12.40;;;5.80;;
27269;SDS011;14769;56.934;24.176;2023-03-13T13:28:39;14.18;;;6.13;;
27269;SDS011;14769;56.934;24.176;2023-03-13T13:30:49;10.85;;;6.05;;
27269;SDS011;14769;56.934;24.176;2023-03-13T13:31:56;17.85;;;7.30;;
27269;SDS011;14769;56.934;24.176;2023-03-13T13:35:34;15.75;;;6.97;;
27269;SDS011;14769;56.934;24.176;2023-03-13T13:36:39;17.98;;;7.50;;
27269;SDS011;14769;56.934;24.176;2023-03-13T13:37:42;15.20;;;6.55;;
27269;SDS011;14769;56.934;24.176;2023-03-13T13:38:44;14.52;;;6.10;;
27269;SDS011;14769;56.934;24.176;2023-03-13T13:39:46;17.52;;;7.25;;
27269;SDS011;14769;56.934;24.176;2023-03-13T13:43:33;19.25;;;7.43;;
27269;SDS011;14769;56.934;24.176;2023-03-13T13:44:55;14.43;;;6.95;;
27269;SDS011;14769;56.934;24.176;2023-03-13T13:47:31;16.75;;;6.90;;
27269;SDS011;14769;56.934;24.176;2023-03-13T13:48:36;15.90;;;7.75;;
27269;SDS011;14769;56.934;24.176;2023-03-13T13:49:50;17.35;;;7.13;;
27269;SDS011;14769;56.934;24.176;2023-03-13T13:56:51;16.00;;;8.10;;
27269;SDS011;14769;56.934;24.176;2023-03-13T14:10:41;17.90;;;7.73;;
27269;SDS011;14769;56.934;24.176;2023-03-13T14:12:55;19.40;;;7.70;;
27269;SDS011;14769;56.934;24.176;2023-03-13T14:14:08;17.40;;;7.00;;
27269;SDS011;14769;56.934;24.176;2023-03-13T14:16:26;24.83;;;8.23;;
27269;SDS011;14769;56.934;24.176;2023-03-13T14:17:29;14.20;;;7.70;;
27269;SDS011;14769;56.934;24.176;2023-03-13T14:18:31;23.27;;;8.97;;
27269;SDS011;14769;56.934;24.176;2023-03-13T14:19:40;16.73;;;8.07;;
27269;SDS011;14769;56.934;24.176;2023-03-13T14:21:50;18.65;;;7.75;;
27269;SDS011;14769;56.934;24.176;2023-03-13T14:22:59;15.35;;;7.90;;
27269;SDS011;14769;56.934;24.176;2023-03-13T14:25:15;15.60;;;8.05;;
27269;SDS011;14769;56.934;24.176;2023-03-13T14:26:21;18.50;;;8.70;;
27269;SDS011;14769;56.934;24.176;2023-03-13T14:27:24;18.20;;;8.75;;
27269;SDS011;14769;56.934;24.176;2023-03-13T14:28:27;15.35;;;8.65;;
27269;SDS011;14769;56.934;24.176;2023-03-13T14:29:29;17.00;;;8.95;;
27269;SDS011;14769;56.934;24.176;2023-03-13T16:36:36;12.97;;;8.13;;
27269;SDS011;14769;56.934;24.176;2023-03-13T16:37:38;13.27;;;8.70;;
27269;SDS011;14769;56.934;24.176;2023-03-13T16:39:42;11.50;;;9.05;;
27269;SDS011;14769;56.934;24.176;2023-03-13T16:40:45;14.33;;;9.83;;
27269;SDS011;14769;56.934;24.176;2023-03-13T16:41:47;14.40;;;9.57;;
27269;SDS011;14769;56.934;24.176;2023-03-13T16:42:49;11.85;;;8.52;;
27269;SDS011;14769;56.934;24.176;2023-03-13T16:43:51;15.63;;;9.10;;
27269;SDS011;14769;56.934;24.176;2023-03-13T16:44:53;14.48;;;9.30;;
27269;SDS011;14769;56.934;24.176;2023-03-13T16:45:55;12.38;;;9.02;;
27269;SDS011;14769;56.934;24.176;2023-03-13T16:46:57;12.90;;;9.73;;
27269;SDS011;14769;56.934;24.176;2023-03-13T16:48:07;12.02;;;8.30;;
27269;SDS011;14769;56.934;24.176;2023-03-13T16:49:16;15.05;;;9.70;;
27269;SDS011;14769;56.934;24.176;2023-03-13T16:50:23;14.93;;;9.20;;
27269;SDS011;14769;56.934;24.176;2023-03-13T16:51:27;15.55;;;9.02;;
27269;SDS011;14769;56.934;24.176;2023-03-13T16:52:29;14.35;;;9.43;;
27269;SDS011;14769;56.934;24.176;2023-03-13T16:53:31;15.23;;;8.40;;
27269;SDS011;14769;56.934;24.176;2023-03-13T16:54:33;13.40;;;8.95;;
27269;SDS011;14769;56.934;24.176;2023-03-13T16:55:35;14.20;;;9.57;;
27269;SDS011;14769;56.934;24.176;2023-03-13T16:56:38;14.23;;;9.30;;
27269;SDS011;14769;56.934;24.176;2023-03-13T16:57:43;13.75;;;9.43;;
27269;SDS011;14769;56.934;24.176;2023-03-13T16:58:45;14.05;;;9.68;;
27269;SDS011;14769;56.934;24.176;2023-03-13T16:59:47;13.20;;;9.15;;
27269;SDS011;14769;56.934;24.176;2023-03-13T17:00:49;12.60;;;8.55;;
27269;SDS011;14769;56.934;24.176;2023-03-13T17:02:11;14.55;;;9.48;;
27269;SDS011;14769;56.934;24.176;2023-03-13T17:03:18;12.10;;;8.48;;
27269;SDS011;14769;56.934;24.176;2023-03-13T17:04:20;13.85;;;8.63;;
27269;SDS011;14769;56.934;24.176;2023-03-13T17:05:22;12.48;;;9.07;;
27269;SDS011;14769;56.934;24.176;2023-03-13T17:06:30;11.73;;;9.10;;
27269;SDS011;14769;56.934;24.176;2023-03-13T17:07:34;14.57;;;9.35;;
27269;SDS011;14769;56.934;24.176;2023-03-13T17:08:36;14.15;;;10.13;;
27269;SDS011;14769;56.934;24.176;2023-03-13T17:09:39;15.95;;;10.40;;
27269;SDS011;14769;56.934;24.176;2023-03-13T17:10:41;11.40;;;8.45;;
27269;SDS011;14769;56.934;24.176;2023-03-13T17:11:50;13.40;;;9.13;;
27269;SDS011;14769;56.934;24.176;2023-03-13T17:12:52;13.15;;;9.30;;
27269;SDS011;14769;56.934;24.176;2023-03-13T17:13:55;12.32;;;9.02;;
27269;SDS011;14769;56.934;24.176;2023-03-13T17:14:57;10.45;;;8.13;;
27269;SDS011;14769;56.934;24.176;2023-03-13T17:15:59;14.43;;;9.07;;
27269;SDS011;14769;56.934;24.176;2023-03-13T17:17:03;16.42;;;9.82;;
27269;SDS011;14769;56.934;24.176;2023-03-13T17:18:05;13.80;;;9.25;;
27269;SDS011;14769;56.934;24.176;2023-03-13T17:19:13;14.30;;;9.07;;
27269;SDS011;14769;56.934;24.176;2023-03-13T17:20:18;12.15;;;8.48;;
27269;SDS011;14769;56.934;24.176;2023-03-13T17:21:26;12.75;;;8.90;;
27269;SDS011;14769;56.934;24.176;2023-03-13T17:22:38;13.75;;;9.05;;
27269;SDS011;14769;56.934;24.176;2023-03-13T17:23:40;13.15;;;9.65;;
27269;SDS011;14769;56.934;24.176;2023-03-13T17:24:42;14.85;;;10.10;;
27269;SDS011;14769;56.934;24.176;2023-03-13T17:25:45;12.05;;;8.55;;
27269;SDS011;14769;56.934;24.176;2023-03-13T17:26:47;13.10;;;8.82;;
27269;SDS011;14769;56.934;24.176;2023-03-13T17:27:49;14.07;;;9.02;;
27269;SDS011;14769;56.934;24.176;2023-03-13T17:28:53;11.73;;;7.90;;
27269;SDS011;14769;56.934;24.176;2023-03-13T17:29:56;13.00;;;8.73;;
27269;SDS011;14769;56.934;24.176;2023-03-13T17:30:58;11.70;;;8.27;;
27269;SDS011;14769;56.934;24.176;2023-03-13T17:32:00;13.93;;;9.20;;
27269;SDS011;14769;56.934;24.176;2023-03-13T17:33:04;12.18;;;9.02;;
27269;SDS011;14769;56.934;24.176;2023-03-13T17:34:06;12.27;;;9.45;;
27269;SDS011;14769;56.934;24.176;2023-03-13T17:35:09;10.27;;;7.90;;
27269;SDS011;14769;56.934;24.176;2023-03-13T17:36:21;11.30;;;8.43;;
27269;SDS011;14769;56.934;24.176;2023-03-13T17:37:28;12.90;;;8.55;;
27269;SDS011;14769;56.934;24.176;2023-03-13T17:38:35;11.50;;;8.40;;
27269;SDS011;14769;56.934;24.176;2023-03-13T17:39:37;11.75;;;8.95;;
27269;SDS011;14769;56.934;24.176;2023-03-13T17:40:39;11.70;;;7.75;;
27269;SDS011;14769;56.934;24.176;2023-03-13T17:41:42;10.40;;;7.95;;
27269;SDS011;14769;56.934;24.176;2023-03-13T17:42:44;10.30;;;8.05;;
27269;SDS011;14769;56.934;24.176;2023-03-13T17:43:46;11.20;;;8.77;;
27269;SDS011;14769;56.934;24.176;2023-03-13T17:44:48;13.27;;;8.75;;
27269;SDS011;14769;56.934;24.176;2023-03-13T17:45:53;10.15;;;7.90;;
27269;SDS011;14769;56.934;24.176;2023-03-13T17:46:56;9.70;;;7.03;;
27269;SDS011;14769;56.934;24.176;2023-03-13T17:47:58;11.02;;;8.00;;
27269;SDS011;14769;56.934;24.176;2023-03-13T17:49:00;12.20;;;7.72;;
27269;SDS011;14769;56.934;24.176;2023-03-13T17:50:08;12.32;;;7.35;;
27269;SDS011;14769;56.934;24.176;2023-03-13T17:51:30;8.35;;;4.90;;
27269;SDS011;14769;56.934;24.176;2023-03-13T17:52:33;8.95;;;6.00;;
27269;SDS011;14769;56.934;24.176;2023-03-13T17:53:35;6.97;;;5.32;;
27269;SDS011;14769;56.934;24.176;2023-03-13T17:54:37;8.50;;;5.78;;
27269;SDS011;14769;56.934;24.176;2023-03-13T17:55:39;8.38;;;6.30;;
27269;SDS011;14769;56.934;24.176;2023-03-13T17:56:41;8.18;;;5.55;;
27269;SDS011;14769;56.934;24.176;2023-03-13T17:57:44;9.35;;;6.07;;
27269;SDS011;14769;56.934;24.176;2023-03-13T17:58:49;8.90;;;5.53;;
27269;SDS011;14769;56.934;24.176;2023-03-13T17:59:52;9.25;;;5.63;;
27269;SDS011;14769;56.934;24.176;2023-03-13T18:00:55;8.77;;;5.85;;
27269;SDS011;14769;56.934;24.176;2023-03-13T18:01:57;11.95;;;6.85;;
27269;SDS011;14769;56.934;24.176;2023-03-13T18:03:02;9.20;;;5.47;;
27269;SDS011;14769;56.934;24.176;2023-03-13T18:04:04;8.15;;;5.30;;
27269;SDS011;14769;56.934;24.176;2023-03-13T18:05:07;9.30;;;5.40;;
27269;SDS011;14769;56.934;24.176;2023-03-13T18:06:20;7.45;;;5.60;;
27269;SDS011;14769;56.934;24.176;2023-03-13T18:07:27;8.30;;;5.30;;
27269;SDS011;14769;56.934;24.176;2023-03-13T18:08:30;7.88;;;5.72;;
27269;SDS011;14769;56.934;24.176;2023-03-13T18:09:32;7.85;;;5.05;;
27269;SDS011;14769;56.934;24.176;2023-03-13T18:10:34;8.93;;;5.80;;
27269;SDS011;14769;56.934;24.176;2023-03-13T18:11:39;8.88;;;5.85;;
27269;SDS011;14769;56.934;24.176;2023-03-13T18:12:41;6.90;;;5.00;;
27269;SDS011;14769;56.934;24.176;2023-03-13T18:13:49;7.45;;;4.85;;
27269;SDS011;14769;56.934;24.176;2023-03-13T18:14:51;8.00;;;5.28;;
27269;SDS011;14769;56.934;24.176;2023-03-13T18:15:54;7.45;;;5.10;;
27269;SDS011;14769;56.934;24.176;2023-03-13T18:16:56;8.23;;;5.10;;
27269;SDS011;14769;56.934;24.176;2023-03-13T18:17:58;7.57;;;5.38;;
27269;SDS011;14769;56.934;24.176;2023-03-13T18:19:00;7.75;;;5.10;;
27269;SDS011;14769;56.934;24.176;2023-03-13T18:20:03;10.40;;;5.07;;
27269;SDS011;14769;56.934;24.176;2023-03-13T18:21:10;8.75;;;5.82;;
27269;SDS011;14769;56.934;24.176;2023-03-13T18:22:13;7.03;;;5.22;;
27269;SDS011;14769;56.934;24.176;2023-03-13T18:23:21;8.07;;;5.38;;
27269;SDS011;14769;56.934;24.176;2023-03-13T18:24:23;7.72;;;5.20;;
27269;SDS011;14769;56.934;24.176;2023-03-13T18:25:26;7.70;;;5.47;;
27269;SDS011;14769;56.934;24.176;2023-03-13T18:26:32;10.38;;;6.88;;
27269;SDS011;14769;56.934;24.176;2023-03-13T18:27:36;9.90;;;6.90;;
27269;SDS011;14769;56.934;24.176;2023-03-13T18:28:38;10.07;;;6.15;;
27269;SDS011;14769;56.934;24.176;2023-03-13T18:29:40;10.45;;;6.00;;
27269;SDS011;14769;56.934;24.176;2023-03-13T18:30:43;7.40;;;5.40;;
27269;SDS011;14769;56.934;24.176;2023-03-13T18:31:45;8.68;;;5.88;;
27269;SDS011;14769;56.934;24.176;2023-03-13T18:32:48;9.27;;;5.95;;
27269;SDS011;14769;56.934;24.176;2023-03-13T18:33:50;8.25;;;5.55;;
27269;SDS011;14769;56.934;24.176;2023-03-13T18:34:52;9.32;;;5.50;;
27269;SDS011;14769;56.934;24.176;2023-03-13T18:35:54;8.48;;;5.90;;
27269;SDS011;14769;56.934;24.176;2023-03-13T18:36:57;7.38;;;5.35;;
27269;SDS011;14769;56.934;24.176;2023-03-13T18:38:04;9.75;;;5.72;;
27269;SDS011;14769;56.934;24.176;2023-03-13T18:39:09;8.10;;;5.70;;
27269;SDS011;14769;56.934;24.176;2023-03-13T18:41:27;8.05;;;5.72;;
27269;SDS011;14769;56.934;24.176;2023-03-13T18:42:29;7.20;;;4.93;;
27269;SDS011;14769;56.934;24.176;2023-03-13T18:43:31;7.97;;;5.70;;
27269;SDS011;14769;56.934;24.176;2023-03-13T18:44:33;7.28;;;5.57;;
27269;SDS011;14769;56.934;24.176;2023-03-13T18:45:35;9.55;;;6.43;;
27269;SDS011;14769;56.934;24.176;2023-03-13T18:46:40;10.88;;;6.45;;
27269;SDS011;14769;56.934;24.176;2023-03-13T18:47:43;9.88;;;5.90;;
27269;SDS011;14769;56.934;24.176;2023-03-13T18:48:46;9.75;;;6.80;;
27269;SDS011;14769;56.934;24.176;2023-03-13T18:49:49;8.25;;;5.82;;
27269;SDS011;14769;56.934;24.176;2023-03-13T18:50:51;10.18;;;6.38;;
27269;SDS011;14769;56.934;24.176;2023-03-13T18:51:53;8.27;;;5.88;;
27269;SDS011;14769;56.934;24.176;2023-03-13T18:52:56;8.80;;;6.35;;
27269;SDS011;14769;56.934;24.176;2023-03-13T18:53:59;10.48;;;6.05;;
27269;SDS011;14769;56.934;24.176;2023-03-13T18:55:05;7.85;;;5.65;;
27269;SDS011;14769;56.934;24.176;2023-03-13T18:56:12;8.65;;;6.25;;
27269;SDS011;14769;56.934;24.176;2023-03-13T18:57:18;9.45;;;6.65;;
27269;SDS011;14769;56.934;24.176;2023-03-13T18:58:24;9.80;;;6.53;;
27269;SDS011;14769;56.934;24.176;2023-03-13T18:59:27;10.10;;;6.82;;
27269;SDS011;14769;56.934;24.176;2023-03-13T19:00:29;10.40;;;6.55;;
27269;SDS011;14769;56.934;24.176;2023-03-13T19:01:40;9.90;;;6.40;;
27269;SDS011;14769;56.934;24.176;2023-03-13T19:02:43;12.68;;;7.05;;
27269;SDS011;14769;56.934;24.176;2023-03-13T19:03:46;9.82;;;6.78;;
27269;SDS011;14769;56.934;24.176;2023-03-13T19:04:51;10.80;;;7.03;;
27269;SDS011;14769;56.934;24.176;2023-03-13T19:05:53;10.45;;;7.15;;
27269;SDS011;14769;56.934;24.176;2023-03-13T19:06:56;9.18;;;6.63;;
27269;SDS011;14769;56.934;24.176;2023-03-13T19:07:58;9.88;;;6.82;;
27269;SDS011;14769;56.934;24.176;2023-03-13T19:09:13;10.38;;;6.40;;
27269;SDS011;14769;56.934;24.176;2023-03-13T19:10:37;12.95;;;6.65;;
27269;SDS011;14769;56.934;24.176;2023-03-13T19:11:40;10.80;;;6.85;;
27269;SDS011;14769;56.934;24.176;2023-03-13T19:12:43;11.50;;;7.47;;
27269;SDS011;14769;56.934;24.176;2023-03-13T19:13:45;12.88;;;7.78;;
27269;SDS011;14769;56.934;24.176;2023-03-13T19:14:47;12.20;;;7.38;;
27269;SDS011;14769;56.934;24.176;2023-03-13T19:15:50;10.00;;;7.10;;
27269;SDS011;14769;56.934;24.176;2023-03-13T19:16:52;11.93;;;7.93;;
27269;SDS011;14769;56.934;24.176;2023-03-13T19:18:00;13.20;;;8.35;;
27269;SDS011;14769;56.934;24.176;2023-03-13T19:19:11;12.85;;;8.38;;
27269;SDS011;14769;56.934;24.176;2023-03-13T19:20:23;11.07;;;7.38;;
27269;SDS011;14769;56.934;24.176;2023-03-13T19:21:29;14.48;;;8.00;;
27269;SDS011;14769;56.934;24.176;2023-03-13T19:22:32;9.90;;;6.95;;
27269;SDS011;14769;56.934;24.176;2023-03-13T19:23:34;16.88;;;8.30;;
27269;SDS011;14769;56.934;24.176;2023-03-13T19:24:37;16.23;;;8.60;;
27269;SDS011;14769;56.934;24.176;2023-03-13T19:25:39;13.75;;;9.02;;
27269;SDS011;14769;56.934;24.176;2023-03-13T19:26:42;12.63;;;8.38;;
27269;SDS011;14769;56.934;24.176;2023-03-13T19:27:47;12.27;;;7.95;;
27269;SDS011;14769;56.934;24.176;2023-03-13T19:28:50;12.80;;;7.80;;
27269;SDS011;14769;56.934;24.176;2023-03-13T19:29:52;16.33;;;9.27;;
27269;SDS011;14769;56.934;24.176;2023-03-13T19:30:56;13.55;;;8.70;;
27269;SDS011;14769;56.934;24.176;2023-03-13T19:31:58;13.25;;;8.15;;
27269;SDS011;14769;56.934;24.176;2023-03-13T19:33:05;12.13;;;8.25;;
27269;SDS011;14769;56.934;24.176;2023-03-13T19:34:07;16.00;;;9.50;;
27269;SDS011;14769;56.934;24.176;2023-03-13T19:35:10;12.57;;;7.20;;
27269;SDS011;14769;56.934;24.176;2023-03-13T19:36:20;12.55;;;8.18;;
27269;SDS011;14769;56.934;24.176;2023-03-13T19:37:24;13.07;;;7.60;;
27269;SDS011;14769;56.934;24.176;2023-03-13T19:38:27;9.77;;;7.00;;
27269;SDS011;14769;56.934;24.176;2023-03-13T19:39:29;11.48;;;7.68;;
27269;SDS011;14769;56.934;24.176;2023-03-13T19:40:34;10.75;;;7.20;;
27269;SDS011;14769;56.934;24.176;2023-03-13T19:41:38;12.70;;;7.47;;
27269;SDS011;14769;56.934;24.176;2023-03-13T19:42:40;9.03;;;6.67;;
27269;SDS011;14769;56.934;24.176;2023-03-13T19:43:42;12.15;;;7.70;;
27269;SDS011;14769;56.934;24.176;2023-03-13T19:44:45;8.30;;;6.70;;
27269;SDS011;14769;56.934;24.176;2023-03-13T22:11:23;22.00;;;12.05;;
27269;SDS011;14769;56.934;24.176;2023-03-13T22:12:25;18.00;;;11.15;;
27269;SDS011;14769;56.934;24.176;2023-03-13T22:13:29;19.00;;;11.35;;
27269;SDS011;14769;56.934;24.176;2023-03-13T22:14:31;20.92;;;11.25;;
27269;SDS011;14769;56.934;24.176;2023-03-13T22:15:32;16.75;;;10.52;;
27269;SDS011;14769;56.934;24.176;2023-03-13T22:16:34;17.25;;;11.30;;
27269;SDS011;14769;56.934;24.176;2023-03-13T22:17:36;21.10;;;11.93;;
27269;SDS011;14769;56.934;24.176;2023-03-13T22:18:38;19.80;;;11.50;;
27269;SDS011;14769;56.934;24.176;2023-03-13T22:19:42;24.65;;;12.25;;
27269;SDS011;14769;56.934;24.176;2023-03-13T22:20:44;21.10;;;11.40;;
27269;SDS011;14769;56.934;24.176;2023-03-13T22:21:45;21.58;;;12.60;;
27269;SDS011;14769;56.934;24.176;2023-03-13T22:22:47;20.45;;;12.57;;
27269;SDS011;14769;56.934;24.176;2023-03-13T22:23:49;22.50;;;11.63;;
27269;SDS011;14769;56.934;24.176;2023-03-13T22:24:51;20.98;;;11.20;;
27269;SDS011;14769;56.934;24.176;2023-03-13T22:25:55;21.60;;;11.75;;
27269;SDS011;14769;56.934;24.176;2023-03-13T22:26:58;19.58;;;11.95;;
27269;SDS011;14769;56.934;24.176;2023-03-13T22:28:00;21.58;;;12.15;;
27269;SDS011;14769;56.934;24.176;2023-03-13T22:29:02;19.85;;;11.75;;
27269;SDS011;14769;56.934;24.176;2023-03-13T22:30:04;21.98;;;13.50;;
27269;SDS011;14769;56.934;24.176;2023-03-13T22:31:07;25.23;;;13.23;;
27269;SDS011;14769;56.934;24.176;2023-03-13T22:32:10;23.25;;;12.57;;
27269;SDS011;14769;56.934;24.176;2023-03-13T22:33:12;22.67;;;12.95;;
27269;SDS011;14769;56.934;24.176;2023-03-13T22:34:14;24.65;;;13.43;;
27269;SDS011;14769;56.934;24.176;2023-03-13T22:35:16;26.00;;;13.57;;
27269;SDS011;14769;56.934;24.176;2023-03-13T22:36:19;24.92;;;12.45;;
27269;SDS011;14769;56.934;24.176;2023-03-13T22:37:21;25.92;;;12.90;;
27269;SDS011;14769;56.934;24.176;2023-03-13T22:38:26;27.83;;;13.27;;
27269;SDS011;14769;56.934;24.176;2023-03-13T22:39:28;27.55;;;14.15;;
27269;SDS011;14769;56.934;24.176;2023-03-13T22:40:30;24.00;;;12.63;;
